Terminal Aerodrome Forecast
Issued by NWS

Home | Current Version | Previous Version | Text Only | Print | Product List | Glossary On
Versions: 1 2 3 4 5 6 7 8 9 10 11 12 13 14 15 16 17 18 19 20 21
000
FTUS41 KPHI 100406 AAB
TAFPNE
TAF AMD
KPNE 100406Z 1004/1024 33004KT 4SM -SN OVC010
      TEMPO 1004/1006 2SM -SN BR BKN006 OVC010
     FM100600 30006KT P6SM VCSH OVC010
     FM100900 28010KT P6SM OVC025
     FM101100 29012KT P6SM SCT020 BKN050
     FM101400 28014G24KT P6SM BKN050=

USA.gov is the U.S. government's official web portal to all federal, state and local government web resources and services.